createdAt,value
2023-04-24T00:01:32.446Z,99841.72
2023-04-24T00:04:05.258Z,99848.41
2023-04-24T00:06:38.523Z,99849.56
2023-04-24T00:09:12.508Z,99846.50
2023-04-24T00:11:45.514Z,99848.78
2023-04-24T00:14:18.079Z,99846.50
2023-04-24T00:16:51.057Z,99846.44
2023-04-24T00:19:23.693Z,99846.06
2023-04-24T00:21:56.448Z,99845.66
2023-04-24T00:24:30.460Z,99852.31
2023-04-24T00:27:03.529Z,99848.03
2023-04-24T00:29:36.121Z,99851.59
2023-04-24T00:32:08.755Z,99852.00
2023-04-24T00:34:41.463Z,99848.03
2023-04-24T00:37:14.136Z,99846.09
2023-04-24T00:39:48.093Z,99844.19
2023-04-24T00:42:21.443Z,99843.06
2023-04-24T00:44:54.083Z,99848.19
2023-04-24T00:47:27.380Z,99843.50
2023-04-24T00:50:00.068Z,99835.56
2023-04-24T00:52:33.167Z,99845.44
2023-04-24T00:55:08.072Z,99846.69
2023-04-24T00:57:41.125Z,99848.97
2023-04-24T01:00:14.448Z,99849.00
2023-04-24T01:02:49.774Z,99849.00
2023-04-24T01:05:24.875Z,99847.47
2023-04-24T01:07:57.594Z,99849.44
2023-04-24T01:10:32.214Z,99845.50
2023-04-24T01:13:04.965Z,99845.09
2023-04-24T01:15:37.698Z,99849.44
2023-04-24T01:18:11.011Z,99844.72
2023-04-24T01:20:45.134Z,99836.47
2023-04-24T01:23:19.245Z,99842.41
2023-04-24T01:25:52.414Z,99840.84
2023-04-24T01:28:25.159Z,99841.19
2023-04-24T01:30:58.197Z,99843.19
2023-04-24T01:33:30.870Z,99842.41
2023-04-24T01:36:03.568Z,99845.16
2023-04-24T01:38:37.760Z,99840.44
2023-04-24T01:41:10.431Z,99835.72
2023-04-24T01:43:42.975Z,99843.56
2023-04-24T01:46:15.606Z,99835.78
2023-04-24T01:48:48.370Z,99844.81
2023-04-24T01:51:21.037Z,99839.78
2023-04-24T01:53:55.308Z,99844.50
2023-04-24T01:56:30.881Z,99846.84
2023-04-24T01:59:04.534Z,99842.91
2023-04-24T02:01:37.945Z,99854.75
2023-04-24T02:04:11.066Z,99852.75
2023-04-24T02:06:43.744Z,99858.25
2023-04-24T02:09:17.907Z,99855.56
2023-04-24T02:11:50.830Z,99846.50
2023-04-24T02:14:24.380Z,99854.38
2023-04-24T02:17:25.812Z,99855.97
2023-04-24T02:20:03.557Z,99855.63
2023-04-24T02:22:36.153Z,99858.31
2023-04-24T02:25:12.614Z,99857.97
2023-04-24T02:27:45.178Z,99860.69
2023-04-24T02:30:20.829Z,99860.34
2023-04-24T02:33:00.758Z,99857.19
2023-04-24T02:35:38.993Z,99853.28
2023-04-24T02:38:12.057Z,99854.06
2023-04-24T02:40:46.192Z,99863.47
2023-04-24T02:43:18.823Z,99859.50
2023-04-24T02:45:51.518Z,99862.28
2023-04-24T02:48:24.660Z,99852.09
2023-04-24T02:50:58.520Z,99856.81
2023-04-24T02:53:32.166Z,99857.63
2023-04-24T02:56:06.309Z,99858.78
2023-04-24T02:58:38.931Z,99846.25
2023-04-24T03:01:11.967Z,99838.41
2023-04-24T03:03:44.821Z,99834.94
2023-04-24T03:06:17.613Z,99834.16
2023-04-24T03:08:50.209Z,99834.53
2023-04-24T03:11:24.224Z,99841.59
2023-04-24T03:13:57.030Z,99841.63
2023-04-24T03:16:29.826Z,99842.00
2023-04-24T03:19:02.456Z,99851.47
2023-04-24T03:21:41.707Z,99855.06
2023-04-24T03:24:14.344Z,99863.28
2023-04-24T03:26:49.244Z,99875.44
2023-04-24T03:29:45.296Z,99875.44
2023-04-24T03:32:18.933Z,99873.50
2023-04-24T03:34:52.769Z,99875.84
2023-04-24T03:37:27.392Z,99882.53
2023-04-24T03:40:11.626Z,99878.59
2023-04-24T03:42:46.173Z,99876.25
2023-04-24T03:45:18.910Z,99874.72
2023-04-24T03:47:54.656Z,99888.06
2023-04-24T03:50:27.680Z,99894.34
2023-04-24T03:53:01.398Z,99907.66
2023-04-24T03:55:42.930Z,99904.16
2023-04-24T03:58:18.921Z,99916.72
2023-04-24T04:00:52.220Z,99919.06
2023-04-24T04:03:54.228Z,99927.31
2023-04-24T04:06:31.672Z,99922.63
2023-04-24T04:09:05.666Z,99937.91
2023-04-24T04:11:38.327Z,99929.69
2023-04-24T04:23:12.839Z,99967.00
2023-04-24T04:25:58.510Z,99978.34
2023-04-24T04:28:43.765Z,99985.03
2023-04-24T04:31:16.440Z,99988.94
2023-04-24T04:37:14.395Z,99995.63
2023-04-24T04:40:15.643Z,100004.28
2023-04-24T04:43:06.108Z,100014.50
2023-04-24T04:45:46.235Z,100026.66
2023-04-24T04:49:19.582Z,100032.13
2023-04-24T04:51:59.650Z,100045.47
2023-04-24T04:54:33.776Z,100047.06
2023-04-24T04:57:07.729Z,100058.44
2023-04-24T04:59:42.332Z,100065.09
2023-04-24T05:02:20.384Z,100076.44
2023-04-24T05:04:53.366Z,100074.53
2023-04-24T05:07:27.830Z,100081.59
2023-04-24T05:10:02.513Z,100083.53
2023-04-24T05:12:35.704Z,100103.94
2023-04-24T05:15:09.751Z,100096.06
2023-04-24T05:17:43.024Z,100109.41
2023-04-24T05:20:16.651Z,100117.25
2023-04-24T05:22:50.826Z,100115.28
2023-04-24T05:25:25.212Z,100129.00
2023-04-24T05:28:02.537Z,100138.44
2023-04-24T05:30:35.291Z,100147.47
2023-04-24T05:33:08.145Z,100142.75
2023-04-24T05:35:46.631Z,100147.88
2023-04-24T05:38:23.804Z,100167.44
2023-04-24T05:40:56.660Z,100172.94
2023-04-24T05:43:52.590Z,100175.28
2023-04-24T05:46:28.381Z,100192.56
2023-04-24T05:49:17.530Z,100189.41
2023-04-24T05:51:51.361Z,100199.59
2023-04-24T05:54:26.945Z,100209.03
2023-04-24T05:57:26.219Z,100222.31
2023-04-24T06:00:15.494Z,100230.97
2023-04-24T06:02:55.864Z,100235.66
2023-04-24T06:05:32.265Z,100236.47
2023-04-24T06:09:05.194Z,100236.44
2023-04-24T06:11:42.655Z,100261.53
2023-04-24T06:14:34.233Z,100252.94
2023-04-24T06:17:41.600Z,100270.16
2023-04-24T06:20:19.892Z,100269.78
2023-04-24T06:23:43.978Z,100272.50
2023-04-24T06:26:17.687Z,100288.19
2023-04-24T06:28:53.395Z,100285.44
2023-04-24T06:31:26.258Z,100298.81
2023-04-24T06:34:01.013Z,100300.75
2023-04-24T06:36:35.513Z,100311.31
2023-04-24T06:39:08.194Z,100308.56
2023-04-24T06:41:40.960Z,100326.59
2023-04-24T06:44:17.763Z,100330.53
2023-04-24T06:46:50.367Z,100333.66
2023-04-24T06:49:22.964Z,100332.88
2023-04-24T06:51:55.617Z,100344.28
2023-04-24T06:54:28.199Z,100359.53
2023-04-24T06:57:01.648Z,100353.66
2023-04-24T06:59:35.790Z,100367.75
2023-04-24T07:02:08.631Z,100368.16
2023-04-24T07:04:43.329Z,100366.59
2023-04-24T07:07:16.718Z,100372.09
2023-04-24T07:09:49.775Z,100376.03
2023-04-24T07:12:22.874Z,100396.00
2023-04-24T07:14:56.903Z,100387.38
2023-04-24T07:17:29.827Z,100401.91
2023-04-24T07:20:02.578Z,100400.31
2023-04-24T07:22:35.127Z,100412.13
2023-04-24T07:25:08.647Z,100414.06
2023-04-24T07:27:41.313Z,100430.91
2023-04-24T07:30:15.574Z,100430.91
2023-04-24T07:32:48.267Z,100428.56
2023-04-24T07:35:21.165Z,100426.19
2023-04-24T07:37:53.813Z,100441.88
2023-04-24T07:40:26.539Z,100435.56
2023-04-24T07:42:59.174Z,100446.97
2023-04-24T07:45:37.229Z,100445.75
2023-04-24T07:48:14.151Z,100452.78
2023-04-24T07:50:47.798Z,100460.22
2023-04-24T07:53:20.433Z,100468.88
2023-04-24T07:55:53.070Z,100465.34
2023-04-24T07:58:25.806Z,100468.00
2023-04-24T08:00:59.809Z,100473.16
2023-04-24T08:03:33.948Z,100475.09
2023-04-24T08:06:07.349Z,100471.19
2023-04-24T08:08:39.986Z,100474.72
2023-04-24T08:11:12.672Z,100484.94
2023-04-24T08:13:45.385Z,100481.78
2023-04-24T08:16:19.788Z,100498.28
2023-04-24T08:18:52.540Z,100496.69
2023-04-24T08:21:25.174Z,100507.28
2023-04-24T08:23:57.870Z,100512.00
2023-04-24T08:26:31.253Z,100513.53
2023-04-24T08:29:03.866Z,100519.00
2023-04-24T08:31:38.123Z,100523.78
2023-04-24T08:34:11.191Z,100537.50
2023-04-24T08:36:47.515Z,100531.16
2023-04-24T08:39:20.644Z,100532.78
2023-04-24T08:41:54.748Z,100542.53
2023-04-24T08:44:29.638Z,100553.91
2023-04-24T08:47:25.967Z,100552.72
2023-04-24T08:49:59.813Z,100554.66
2023-04-24T08:52:32.774Z,100566.03
2023-04-24T08:55:07.807Z,100560.97
2023-04-24T08:57:41.339Z,100567.28
2023-04-24T09:00:14.485Z,100571.19
2023-04-24T09:02:50.971Z,100575.16
2023-04-24T09:07:58.964Z,100580.66
2023-04-24T09:10:32.431Z,100582.63
2023-04-24T09:13:05.471Z,100583.41
2023-04-24T09:15:38.405Z,100588.91
2023-04-24T09:18:12.803Z,100587.81
2023-04-24T09:21:02.355Z,100575.28
2023-04-24T09:23:35.610Z,100588.63
2023-04-24T09:26:10.790Z,100587.13
2023-04-24T09:28:45.279Z,100584.41
2023-04-24T09:31:23.090Z,100590.31
2023-04-24T09:34:01.978Z,100580.91
2023-04-24T09:36:38.189Z,100597.00
2023-04-24T09:39:14.807Z,100601.75
2023-04-24T09:41:49.994Z,100613.16
2023-04-24T09:44:26.686Z,100613.13
2023-04-24T09:47:00.092Z,100613.22
2023-04-24T09:49:36.123Z,100623.81
2023-04-24T09:52:12.284Z,100626.66
2023-04-24T09:54:55.036Z,100634.94
2023-04-24T09:57:28.258Z,100647.13
2023-04-24T10:00:01.126Z,100647.50
2023-04-24T10:02:34.357Z,100651.88
2023-04-24T10:05:09.500Z,100647.97
2023-04-24T10:07:50.085Z,100653.84
2023-04-24T10:10:30.637Z,100649.13
2023-04-24T10:13:04.037Z,100654.97
2023-04-24T10:15:37.053Z,100658.09
2023-04-24T10:18:12.550Z,100654.53
2023-04-24T10:20:46.913Z,100657.69
2023-04-24T10:23:21.512Z,100657.22
2023-04-24T10:25:54.610Z,100654.94
2023-04-24T10:28:29.044Z,100664.00
2023-04-24T10:31:08.032Z,100667.56
2023-04-24T10:33:49.558Z,100671.94
2023-04-24T10:36:27.943Z,100677.81
2023-04-24T10:39:02.071Z,100679.44
2023-04-24T10:41:36.188Z,100677.16
2023-04-24T10:44:11.953Z,100687.81
2023-04-24T10:46:55.302Z,100704.00
2023-04-24T10:49:31.949Z,100708.69
2023-04-24T10:52:11.598Z,100707.19
2023-04-24T10:54:48.129Z,100704.81
2023-04-24T10:57:32.504Z,100706.81
2023-04-24T11:00:18.746Z,100714.25
2023-04-24T11:02:54.897Z,100721.34
2023-04-24T11:05:46.529Z,100713.09
2023-04-24T11:08:25.844Z,100723.69
2023-04-24T11:10:59.683Z,100730.75
2023-04-24T11:13:51.751Z,100731.50
2023-04-24T11:16:30.368Z,100735.09
2023-04-24T11:19:03.940Z,100746.88
2023-04-24T11:21:43.910Z,100747.69
2023-04-24T11:24:31.880Z,100750.06
2023-04-24T11:27:09.002Z,100763.84
2023-04-24T11:29:43.093Z,100755.97
2023-04-24T11:32:26.003Z,100757.94
2023-04-24T11:34:59.435Z,100756.78
2023-04-24T11:37:35.752Z,100760.75
2023-04-24T11:40:10.868Z,100768.66
2023-04-24T11:42:44.710Z,100777.69
2023-04-24T11:45:18.137Z,100780.47
2023-04-24T11:47:51.178Z,100771.81
2023-04-24T11:50:24.634Z,100767.88
2023-04-24T11:52:57.780Z,100773.03
2023-04-24T11:55:31.758Z,100779.31
2023-04-24T11:58:04.243Z,100785.59
2023-04-24T12:00:39.369Z,100786.81
2023-04-24T12:03:13.786Z,100791.13
2023-04-24T12:05:47.038Z,100796.63
2023-04-24T12:08:29.010Z,100804.13
2023-04-24T12:11:05.623Z,100796.25
2023-04-24T12:16:32.917Z,100806.91
2023-04-24T12:19:07.019Z,100802.16
2023-04-24T12:21:39.838Z,100808.06
2023-04-24T12:24:12.623Z,100802.94
2023-04-24T12:26:46.595Z,100816.72
2023-04-24T12:29:27.669Z,100825.41
2023-04-24T12:32:00.217Z,100820.69
2023-04-24T12:34:33.652Z,100819.88
2023-04-24T12:37:11.835Z,100826.97
2023-04-24T12:39:47.269Z,100822.66
2023-04-24T12:42:27.575Z,100832.47
2023-04-24T12:45:01.573Z,100826.56
2023-04-24T12:47:34.597Z,100828.16
2023-04-24T12:50:08.103Z,100832.06
2023-04-24T12:52:42.996Z,100845.88
2023-04-24T12:55:15.745Z,100842.75
2023-04-24T12:57:49.622Z,100840.38
2023-04-24T13:00:22.586Z,100857.69
2023-04-24T13:02:55.479Z,100860.44
2023-04-24T13:05:28.820Z,100863.19
2023-04-24T13:08:01.595Z,100863.97
2023-04-24T13:10:34.260Z,100859.25
2023-04-24T13:13:08.298Z,100867.94
2023-04-24T13:15:43.880Z,100859.25
2023-04-24T13:18:16.846Z,100858.47
2023-04-24T13:20:49.761Z,100868.31
2023-04-24T13:23:23.892Z,100867.94
2023-04-24T13:25:58.572Z,100868.31
2023-04-24T13:28:32.905Z,100876.16
2023-04-24T13:31:05.910Z,100870.66
2023-04-24T13:33:38.636Z,100867.50
2023-04-24T13:36:11.151Z,100876.56
2023-04-24T13:38:43.758Z,100880.53
2023-04-24T13:41:16.435Z,100887.97
2023-04-24T13:43:50.488Z,100877.78
2023-04-24T13:46:23.173Z,100882.91
2023-04-24T13:48:56.113Z,100881.31
2023-04-24T13:51:28.889Z,100869.91
2023-04-24T13:54:01.741Z,100878.97
2023-04-24T13:56:34.512Z,100873.84
2023-04-24T14:02:11.376Z,100878.94
2023-04-24T14:13:42.699Z,100871.88
2023-04-24T14:16:29.951Z,100877.41
2023-04-24T15:25:49.285Z,100900.28
2023-04-24T15:28:22.794Z,100902.63
2023-04-24T15:30:55.729Z,100906.53
2023-04-24T15:33:28.591Z,100904.19
2023-04-24T15:36:01.312Z,100907.31
2023-04-24T15:38:34.135Z,100914.44
2023-04-24T15:41:08.622Z,100907.72
2023-04-24T15:43:42.407Z,100912.06
2023-04-24T15:46:15.451Z,100918.34
2023-04-24T15:48:48.870Z,100914.44
2023-04-24T15:54:30.460Z,100919.94
2023-04-24T15:57:04.708Z,100927.81
2023-04-24T15:59:42.089Z,100927.00
2023-04-24T16:02:19.177Z,100931.75
2023-04-24T16:04:53.170Z,100917.56
2023-04-24T16:07:26.096Z,100918.38
2023-04-24T16:10:03.013Z,100924.63
2023-04-24T16:12:41.923Z,100925.44
2023-04-24T16:15:37.761Z,100915.19
2023-04-24T16:18:11.865Z,100919.91
2023-04-24T16:20:44.878Z,100925.78
2023-04-24T16:23:17.692Z,100928.53
2023-04-24T16:25:51.704Z,100922.22
2023-04-24T16:28:30.577Z,100923.81
2023-04-24T16:31:13.655Z,100933.63
2023-04-24T16:33:49.110Z,100930.44
2023-04-24T16:36:28.877Z,100937.88
2023-04-24T16:39:13.349Z,100928.84
2023-04-24T16:41:46.052Z,100933.16
2023-04-24T16:44:28.184Z,100931.59
2023-04-24T16:47:05.573Z,100935.94
2023-04-24T16:49:38.522Z,100939.44
2023-04-24T16:52:12.011Z,100935.47
2023-04-24T16:54:50.069Z,100940.97
2023-04-24T16:57:23.285Z,100952.78
2023-04-24T17:00:05.217Z,100946.88
2023-04-24T17:02:41.089Z,100959.44
2023-04-24T17:05:13.875Z,100955.88
2023-04-24T19:08:39.664Z,101027.59
2023-04-24T19:11:14.889Z,101026.19
2023-04-24T19:13:50.445Z,101031.41
2023-04-24T19:16:26.217Z,101036.00
2023-04-24T19:19:18.784Z,101033.66
2023-04-24T19:21:54.740Z,101043.81
2023-04-24T20:13:37.167Z,101071.25
2023-04-24T20:17:10.910Z,101075.34
2023-04-24T20:20:27.803Z,101079.53
2023-04-24T20:23:14.253Z,101075.94
2023-04-24T20:25:54.978Z,101064.97
2023-04-24T20:28:41.305Z,101077.34
2023-04-24T20:31:14.838Z,101067.97
2023-04-24T20:33:47.722Z,101064.72
2023-04-24T20:36:21.928Z,101063.91
2023-04-24T20:38:54.545Z,101060.00
2023-04-24T20:41:27.359Z,101056.03
2023-04-24T20:44:00.181Z,101064.97
2023-04-24T20:46:32.917Z,101063.41
2023-04-24T20:49:05.559Z,101053.59
2023-04-24T20:51:39.447Z,101060.81
2023-04-24T20:54:12.411Z,101059.66
2023-04-24T20:56:45.221Z,101061.16
2023-04-24T20:59:25.585Z,101056.09
2023-04-24T21:02:06.736Z,101043.03
2023-04-24T21:04:39.953Z,101050.47
2023-04-24T21:07:20.959Z,101048.22
2023-04-24T21:09:53.760Z,101044.25
2023-04-24T21:12:26.382Z,101041.38
2023-04-24T21:14:59.949Z,101036.63
2023-04-24T21:17:35.129Z,101038.06
2023-04-24T21:20:08.458Z,101034.16
2023-04-24T21:22:42.452Z,101025.44
2023-04-24T21:25:14.971Z,101027.84
2023-04-24T21:27:48.035Z,101023.06
2023-04-24T21:30:24.249Z,101025.75
2023-04-24T21:33:03.531Z,101026.69
2023-04-24T21:35:36.801Z,101035.47
2023-04-24T21:38:10.770Z,101030.50
2023-04-24T21:40:43.466Z,101030.00
2023-04-24T21:43:17.960Z,101023.81
2023-04-24T21:45:52.421Z,101022.88
2023-04-24T21:48:24.949Z,101025.13
2023-04-24T21:50:57.542Z,101024.69
2023-04-24T21:56:22.096Z,101035.28
2023-04-24T21:58:54.819Z,101030.88
2023-04-24T22:01:27.693Z,101028.59
2023-04-24T22:04:00.611Z,101041.44
2023-04-24T22:06:34.654Z,101043.75
2023-04-24T22:09:08.569Z,101047.78
2023-04-24T22:11:43.311Z,101047.28
2023-04-24T22:14:16.085Z,101055.13
2023-04-24T22:16:50.261Z,101056.66
2023-04-24T22:19:23.258Z,101058.25
2023-04-24T22:21:55.836Z,101055.50
2023-04-24T22:24:29.824Z,101057.72
2023-04-24T22:27:04.721Z,101053.63
2023-04-24T22:29:37.355Z,101056.16
2023-04-24T22:32:10.021Z,101054.84
2023-04-24T22:34:42.741Z,101054.94
2023-04-24T22:37:15.787Z,101060.75
2023-04-24T22:39:49.739Z,101065.22
2023-04-24T22:42:22.275Z,101055.13
2023-04-24T22:44:55.109Z,101056.28
2023-04-24T22:47:27.744Z,101057.38
2023-04-24T22:50:00.533Z,101065.22
2023-04-24T22:52:33.711Z,101064.34
2023-04-24T22:55:08.312Z,101063.50
2023-04-24T22:57:41.121Z,101059.25
2023-04-24T23:00:14.078Z,101069.25
2023-04-24T23:02:46.990Z,101063.78
2023-04-24T23:05:21.976Z,101061.13
2023-04-24T23:07:54.639Z,101057.13
2023-04-24T23:10:28.728Z,101068.97
2023-04-24T23:13:01.366Z,101060.88
2023-04-24T23:15:34.741Z,101062.91
2023-04-24T23:18:07.436Z,101067.94
2023-04-24T23:20:41.172Z,101060.03
2023-04-24T23:23:14.112Z,101070.97
2023-04-24T23:25:48.246Z,101074.63
2023-04-24T23:28:20.913Z,101071.47
2023-04-24T23:30:53.608Z,101076.31
2023-04-24T23:33:26.468Z,101078.88
2023-04-24T23:35:59.503Z,101074.09
2023-04-24T23:38:39.928Z,101078.50
2023-04-24T23:41:23.271Z,101083.63
2023-04-24T23:43:55.782Z,101085.63
2023-04-24T23:46:28.553Z,101088.69
2023-04-24T23:49:04.022Z,101088.69
2023-04-24T23:51:36.873Z,101086.84
2023-04-24T23:54:09.740Z,101093.09
2023-04-24T23:56:43.668Z,101087.34
2023-04-24T23:59:16.328Z,101090.00
